Time;durP1;ratioP1;P1;durP2;ratioP2;P2;SDS_P1;SDS_P2;PMS_P1;PMS_P2;Temp;Humidity;BMP_temperature;BMP_pressure;BME280_temperature;BME280_humidity;BME280_pressure;Samples;Min_cycle;Max_cycle;Signal;HPM_P1;HPM_P2
2023/08/04 00:01:51;;;;;;;0.57;0.57;;;16.30;99.90;;;;;;4974405;28;20132;-92
2023/08/04 00:04:20;;;;;;;0.50;0.50;;;16.30;99.90;;;;;;4989382;28;20494;-92
2023/08/04 00:06:45;;;;;;;0.50;0.50;;;16.20;99.90;;;;;;4988344;28;20062;-92
2023/08/04 00:09:11;;;;;;;0.55;0.55;;;16.10;99.90;;;;;;4971125;28;20523;-91
2023/08/04 00:11:37;;;;;;;0.50;0.50;;;16.20;99.90;;;;;;4990691;28;20499;-91
2023/08/04 00:14:02;;;;;;;0.50;0.50;;;16.00;99.90;;;;;;4974171;28;20096;-90
2023/08/04 00:16:28;;;;;;;0.50;0.50;;;16.20;99.90;;;;;;4990767;28;20099;-91
2023/08/04 00:18:54;;;;;;;0.50;0.50;;;16.00;99.90;;;;;;4989072;28;20488;-92
2023/08/04 00:21:19;;;;;;;0.55;0.55;;;16.00;99.90;;;;;;4990614;28;20085;-92
2023/08/04 00:23:45;;;;;;;0.55;0.55;;;16.10;99.90;;;;;;4988497;28;20042;-91
2023/08/04 00:26:11;;;;;;;0.50;0.50;;;16.00;99.90;;;;;;4973122;28;20042;-92
2023/08/04 00:28:37;;;;;;;0.50;0.50;;;16.00;99.90;;;;;;4988333;28;20475;-92
2023/08/04 00:31:02;;;;;;;0.50;0.50;;;15.90;99.90;;;;;;4988876;28;20034;-91
2023/08/04 00:33:28;;;;;;;0.60;0.60;;;15.90;99.90;;;;;;4990019;28;20133;-91
2023/08/04 00:35:54;;;;;;;0.50;0.50;;;15.80;99.90;;;;;;4990736;28;20062;-92
2023/08/04 00:38:20;;;;;;;0.60;0.60;;;15.80;99.90;;;;;;4987043;28;20054;-92
2023/08/04 00:40:53;;;;;;;0.50;0.50;;;15.80;99.90;;;;;;4987291;28;20052;-91
2023/08/04 00:43:18;;;;;;;0.60;0.60;;;15.80;99.90;;;;;;4972392;28;20510;-90
2023/08/04 00:45:44;;;;;;;0.52;0.52;;;15.60;99.90;;;;;;4971492;28;20078;-90
2023/08/04 00:48:10;;;;;;;0.50;0.50;;;15.70;99.90;;;;;;4990678;28;20050;-91
2023/08/04 00:50:36;;;;;;;0.60;0.60;;;15.50;99.90;;;;;;4988716;28;20049;-91
2023/08/04 00:53:02;;;;;;;0.50;0.50;;;15.60;99.90;;;;;;4992004;28;20768;-91
2023/08/04 00:55:28;;;;;;;0.50;0.50;;;15.60;99.90;;;;;;4970934;28;20409;-91
2023/08/04 00:57:55;;;;;;;0.60;0.60;;;15.70;99.90;;;;;;4991308;28;20480;-90
2023/08/04 01:00:21;;;;;;;0.50;0.50;;;15.70;99.90;;;;;;4973381;28;20105;-91
2023/08/04 01:02:46;;;;;;;0.50;0.50;;;15.60;99.90;;;;;;4989089;28;20050;-91
2023/08/04 01:05:12;;;;;;;0.50;0.50;;;15.60;99.90;;;;;;4988965;28;20046;-90
2023/08/04 01:08:15;;;;;;;0.52;0.52;;;15.60;99.90;;;;;;4986927;28;20054;-91
2023/08/04 01:10:53;;;;;;;0.50;0.50;;;15.50;99.90;;;;;;4971331;28;20555;-90
2023/08/04 01:13:21;;;;;;;0.60;0.60;;;15.50;99.90;;;;;;4985025;28;20053;-91
2023/08/04 01:15:51;;;;;;;0.50;0.50;;;15.70;99.90;;;;;;4985971;28;20500;-91
2023/08/04 01:18:23;;;;;;;0.60;0.60;;;15.60;99.90;;;;;;4986052;28;20053;-90
2023/08/04 01:20:49;;;;;;;0.60;0.60;;;15.50;99.90;;;;;;4970285;28;20061;-92
2023/08/04 01:23:15;;;;;;;0.57;0.57;;;15.50;99.90;;;;;;4973300;28;20050;-92
2023/08/04 01:25:42;;;;;;;0.60;0.60;;;15.60;99.90;;;;;;4973408;28;20043;-91
2023/08/04 01:28:13;;;;;;;0.60;0.60;;;15.60;99.90;;;;;;4989746;28;20054;-91
2023/08/04 01:30:40;;;;;;;0.60;0.60;;;15.60;99.90;;;;;;4988823;28;20842;-91
2023/08/04 01:33:06;;;;;;;0.60;0.60;;;15.40;99.90;;;;;;4988636;28;20050;-91
2023/08/04 01:35:32;;;;;;;0.68;0.68;;;15.50;99.90;;;;;;4990125;28;20061;-92
2023/08/04 01:37:57;;;;;;;0.50;0.50;;;15.40;99.90;;;;;;4990209;28;20132;-91
2023/08/04 01:40:23;;;;;;;0.60;0.60;;;15.30;99.90;;;;;;4988742;28;20053;-92
2023/08/04 01:42:49;;;;;;;0.50;0.50;;;15.30;99.90;;;;;;4972678;28;20038;-93
2023/08/04 01:45:14;;;;;;;0.60;0.60;;;15.30;99.90;;;;;;4967647;28;20061;-91
2023/08/04 01:47:40;;;;;;;0.60;0.60;;;15.30;99.90;;;;;;4974870;28;20048;-91
2023/08/04 01:50:08;;;;;;;0.60;0.60;;;15.30;99.90;;;;;;4986432;28;22586;-91
2023/08/04 01:52:34;;;;;;;0.57;0.57;;;15.30;99.90;;;;;;4988301;28;20050;-92
2023/08/04 01:54:59;;;;;;;0.50;0.50;;;15.20;99.90;;;;;;4971495;28;20043;-91
2023/08/04 01:57:25;;;;;;;0.57;0.57;;;15.20;99.90;;;;;;4985001;28;20407;-92
2023/08/04 01:59:51;;;;;;;0.60;0.60;;;15.30;99.90;;;;;;4973937;28;20038;-91
2023/08/04 02:02:17;;;;;;;0.60;0.60;;;15.40;99.90;;;;;;4986996;28;20125;-92
2023/08/04 02:04:42;;;;;;;0.60;0.60;;;15.40;99.90;;;;;;4986677;28;20487;-90
2023/08/04 02:07:11;;;;;;;0.60;0.60;;;15.30;99.90;;;;;;4970796;28;20047;-92
2023/08/04 02:09:36;;;;;;;0.60;0.60;;;15.10;99.90;;;;;;4988843;28;20050;-91
2023/08/04 02:12:02;;;;;;;0.60;0.60;;;15.00;99.90;;;;;;4969078;28;20120;-91
2023/08/04 02:14:28;;;;;;;0.50;0.50;;;15.10;99.90;;;;;;4991482;28;20046;-92
2023/08/04 02:16:55;;;;;;;0.60;0.60;;;15.00;99.90;;;;;;4971609;28;20061;-91
2023/08/04 02:19:22;;;;;;;0.60;0.60;;;15.10;99.90;;;;;;4985615;28;20042;-90
2023/08/04 02:21:48;;;;;;;0.60;0.60;;;15.10;99.90;;;;;;4972221;28;21595;-91
2023/08/04 02:24:14;;;;;;;0.60;0.60;;;15.00;99.90;;;;;;4983797;28;20042;-90
2023/08/04 02:26:40;;;;;;;0.52;0.52;;;15.10;99.90;;;;;;4985365;28;20133;-90
2023/08/04 02:29:06;;;;;;;0.60;0.60;;;14.90;99.90;;;;;;4985726;28;20534;-90
2023/08/04 02:31:32;;;;;;;0.60;0.60;;;14.90;99.90;;;;;;4987264;28;20132;-91
2023/08/04 02:33:59;;;;;;;0.60;0.60;;;14.90;99.90;;;;;;4972287;28;20141;-91
2023/08/04 02:36:27;;;;;;;0.60;0.60;;;14.90;99.90;;;;;;4972335;28;20125;-93
2023/08/04 02:38:53;;;;;;;0.60;0.60;;;14.80;99.90;;;;;;4968110;28;20046;-91
2023/08/04 02:41:18;;;;;;;0.60;0.60;;;14.80;99.90;;;;;;4970335;28;20072;-90
2023/08/04 02:43:44;;;;;;;0.55;0.55;;;14.80;99.90;;;;;;4969616;28;20046;-90
2023/08/04 02:46:10;;;;;;;0.57;0.57;;;14.90;99.90;;;;;;4969221;28;20060;-91
2023/08/04 02:48:37;;;;;;;0.60;0.60;;;14.80;99.90;;;;;;4968152;28;20080;-89
2023/08/04 02:51:10;;;;;;;0.60;0.60;;;14.80;99.90;;;;;;4987246;28;20061;-89
2023/08/04 02:53:43;;;;;;;0.60;0.60;;;15.00;99.90;;;;;;4963059;28;20089;-90
2023/08/04 02:56:14;;;;;;;0.60;0.60;;;14.80;99.90;;;;;;4963689;28;20117;-90
2023/08/04 02:58:44;;;;;;;0.50;0.50;;;14.90;99.90;;;;;;4965116;28;20065;-90
2023/08/04 03:01:10;;;;;;;0.60;0.60;;;14.90;99.90;;;;;;4963750;28;20050;-89
2023/08/04 03:03:36;;;;;;;0.50;0.50;;;15.30;99.90;;;;;;4966483;28;20561;-90
2023/08/04 03:06:03;;;;;;;0.50;0.50;;;15.30;99.90;;;;;;4987990;28;20042;-89
2023/08/04 03:08:31;;;;;;;0.50;0.50;;;15.40;99.90;;;;;;4986007;28;20781;-89
2023/08/04 03:10:56;;;;;;;0.50;0.50;;;15.00;99.90;;;;;;4987931;28;20049;-90
2023/08/04 03:13:22;;;;;;;0.50;0.50;;;15.20;99.90;;;;;;4988671;28;20043;-89
2023/08/04 03:15:55;;;;;;;0.50;0.50;;;15.10;99.90;;;;;;4974461;28;20046;-90
2023/08/04 03:18:21;;;;;;;0.50;0.50;;;15.50;99.90;;;;;;4989567;28;20148;-90
2023/08/04 03:20:46;;;;;;;0.50;0.50;;;15.50;99.90;;;;;;4974005;28;20089;-90
2023/08/04 03:23:12;;;;;;;0.50;0.50;;;15.20;99.90;;;;;;4971428;28;20061;-92
2023/08/04 03:25:37;;;;;;;0.50;0.50;;;15.50;99.90;;;;;;4986918;28;20164;-89
2023/08/04 03:28:03;;;;;;;0.50;0.50;;;15.20;99.90;;;;;;4990892;28;20093;-91
2023/08/04 03:30:35;;;;;;;0.50;0.50;;;15.40;99.90;;;;;;4987713;28;20050;-92
2023/08/04 03:33:00;;;;;;;0.50;0.50;;;15.40;99.90;;;;;;4974110;28;20399;-92
2023/08/04 03:35:26;;;;;;;0.50;0.50;;;15.30;99.90;;;;;;4989552;28;20054;-91
2023/08/04 03:37:51;;;;;;;0.50;0.50;;;15.30;99.90;;;;;;4973624;28;20113;-90
2023/08/04 03:40:17;;;;;;;0.50;0.50;;;15.60;99.90;;;;;;4973973;28;20050;-90
2023/08/04 03:42:43;;;;;;;0.52;0.52;;;15.50;99.90;;;;;;4990239;28;20039;-91
2023/08/04 03:45:09;;;;;;;0.50;0.50;;;15.30;99.90;;;;;;4973712;28;20050;-91
2023/08/04 03:47:35;;;;;;;0.50;0.50;;;15.40;99.90;;;;;;4990017;28;20046;-90
2023/08/04 03:50:02;;;;;;;0.50;0.50;;;15.70;99.90;;;;;;4990670;28;20105;-89
2023/08/04 03:52:27;;;;;;;0.50;0.50;;;15.50;99.90;;;;;;4992523;28;20550;-90
2023/08/04 03:54:53;;;;;;;0.50;0.50;;;15.70;99.90;;;;;;4990082;28;20152;-91
2023/08/04 03:57:19;;;;;;;0.50;0.50;;;15.70;99.90;;;;;;4989046;28;20042;-88
2023/08/04 03:59:44;;;;;;;0.50;0.50;;;15.50;99.90;;;;;;4992616;28;20704;-90
2023/08/04 04:02:10;;;;;;;0.50;0.50;;;15.30;99.90;;;;;;4977226;28;20046;-93
2023/08/04 04:04:45;;;;;;;0.50;0.50;;;15.50;99.90;;;;;;4991110;28;20042;-93
2023/08/04 04:07:11;;;;;;;0.50;0.50;;;15.30;99.90;;;;;;4999254;28;20101;-89
2023/08/04 04:09:37;;;;;;;0.50;0.50;;;15.60;99.90;;;;;;4995825;28;20480;-92
2023/08/04 04:12:03;;;;;;;0.50;0.50;;;15.60;99.90;;;;;;4991803;28;20145;-92
2023/08/04 04:14:28;;;;;;;0.50;0.50;;;15.70;99.90;;;;;;4988434;28;22854;-90
2023/08/04 04:16:55;;;;;;;0.50;0.50;;;15.70;99.90;;;;;;4986559;28;20050;-90
2023/08/04 04:19:21;;;;;;;0.50;0.50;;;15.50;99.90;;;;;;4987014;28;20042;-92
2023/08/04 04:21:49;;;;;;;0.50;0.50;;;15.70;99.90;;;;;;4988218;28;20515;-92
2023/08/04 04:24:15;;;;;;;0.50;0.50;;;15.40;99.90;;;;;;4972148;28;20035;-90
2023/08/04 04:26:41;;;;;;;0.50;0.50;;;15.50;99.90;;;;;;4986893;28;20189;-92
2023/08/04 04:29:06;;;;;;;0.50;0.50;;;15.50;99.90;;;;;;4988140;28;20046;-92
2023/08/04 04:31:33;;;;;;;0.50;0.50;;;15.70;99.90;;;;;;4972696;28;20133;-92
2023/08/04 04:33:59;;;;;;;0.50;0.50;;;15.70;99.90;;;;;;4985915;28;20518;-91
2023/08/04 04:36:24;;;;;;;0.52;0.52;;;15.40;99.90;;;;;;4967274;28;20134;-90
2023/08/04 04:38:50;;;;;;;0.50;0.50;;;15.60;99.90;;;;;;4986108;28;20050;-90
2023/08/04 04:41:16;;;;;;;0.50;0.50;;;15.60;99.90;;;;;;4987953;28;20104;-91
2023/08/04 04:43:41;;;;;;;0.43;0.43;;;15.60;99.90;;;;;;4984449;28;20054;-89
2023/08/04 04:46:07;;;;;;;0.50;0.50;;;15.60;99.90;;;;;;4983366;28;20099;-90
2023/08/04 04:48:33;;;;;;;0.50;0.50;;;15.50;99.90;;;;;;4987081;28;20061;-91
2023/08/04 04:50:59;;;;;;;0.50;0.50;;;15.50;99.90;;;;;;4987251;28;20038;-91
2023/08/04 04:53:25;;;;;;;0.50;0.50;;;15.70;99.90;;;;;;4968532;28;20056;-90
2023/08/04 04:55:50;;;;;;;0.50;0.50;;;15.50;99.90;;;;;;4964848;28;20073;-91
2023/08/04 04:58:16;;;;;;;0.50;0.50;;;15.60;99.90;;;;;;4985274;28;20054;-90
2023/08/04 05:00:42;;;;;;;0.50;0.50;;;15.60;99.90;;;;;;4984740;28;20060;-90
2023/08/04 05:03:10;;;;;;;0.50;0.50;;;16.00;99.90;;;;;;4984388;28;20525;-91
2023/08/04 05:05:36;;;;;;;0.50;0.50;;;15.90;99.90;;;;;;4984611;28;20050;-90
2023/08/04 05:08:02;;;;;;;0.50;0.50;;;16.00;99.90;;;;;;4984252;28;20050;-90
2023/08/04 05:10:28;;;;;;;0.50;0.50;;;16.10;99.90;;;;;;4983286;28;20050;-90
2023/08/04 05:12:54;;;;;;;0.40;0.40;;;16.10;99.90;;;;;;4969516;28;20507;-91
2023/08/04 05:15:20;;;;;;;0.50;0.50;;;15.90;99.90;;;;;;4971453;28;20568;-92
2023/08/04 05:17:45;;;;;;;0.50;0.50;;;15.90;99.90;;;;;;4971045;28;20038;-90
2023/08/04 05:20:12;;;;;;;0.50;0.50;;;16.10;99.90;;;;;;4981603;28;20848;-90
2023/08/04 05:22:39;;;;;;;0.50;0.50;;;16.20;99.90;;;;;;4983747;28;20042;-90
2023/08/04 05:25:05;;;;;;;0.43;0.43;;;16.20;99.90;;;;;;4986750;28;20136;-89
2023/08/04 05:27:31;;;;;;;0.50;0.50;;;16.10;99.90;;;;;;4984222;28;20050;-90
2023/08/04 05:29:57;;;;;;;0.50;0.50;;;16.30;99.90;;;;;;4985468;28;20393;-90
2023/08/04 05:32:23;;;;;;;0.50;0.50;;;16.30;99.90;;;;;;4986825;28;20043;-91
2023/08/04 05:34:48;;;;;;;0.50;0.50;;;16.40;99.90;;;;;;4985909;28;20042;-89
2023/08/04 05:37:14;;;;;;;0.50;0.50;;;16.40;99.90;;;;;;4970529;28;20101;-91
2023/08/04 05:39:40;;;;;;;0.50;0.50;;;16.30;99.90;;;;;;4971065;28;20049;-91
2023/08/04 05:42:06;;;;;;;0.50;0.50;;;16.40;99.90;;;;;;4971141;28;20057;-90
2023/08/04 05:44:32;;;;;;;0.40;0.40;;;16.70;99.90;;;;;;4987712;28;20084;-90
2023/08/04 05:46:59;;;;;;;0.50;0.50;;;16.80;99.90;;;;;;4969188;28;20045;-90
2023/08/04 05:49:24;;;;;;;0.50;0.50;;;17.00;99.90;;;;;;4987661;28;20050;-91
2023/08/04 05:51:50;;;;;;;0.50;0.50;;;16.70;99.90;;;;;;4987649;28;20194;-90
2023/08/04 05:54:16;;;;;;;0.50;0.50;;;16.80;99.90;;;;;;4987452;28;20034;-91
2023/08/04 05:56:42;;;;;;;0.60;0.60;;;16.70;99.90;;;;;;4988855;28;20042;-90
2023/08/04 05:59:07;;;;;;;0.50;0.50;;;16.50;99.90;;;;;;4989643;28;20042;-91
2023/08/04 06:01:33;;;;;;;0.50;0.50;;;16.50;99.90;;;;;;4984542;28;20086;-89
2023/08/04 06:03:59;;;;;;;0.60;0.60;;;16.70;99.90;;;;;;4986369;28;20051;-89
2023/08/04 06:06:25;;;;;;;0.50;0.50;;;16.50;99.90;;;;;;4989505;28;20424;-91
2023/08/04 06:08:51;;;;;;;0.50;0.50;;;16.80;99.90;;;;;;4987557;28;20054;-88
2023/08/04 06:11:17;;;;;;;0.55;0.55;;;16.80;99.90;;;;;;4985968;28;20038;-89
2023/08/04 06:13:47;;;;;;;0.50;0.50;;;16.80;99.90;;;;;;4973918;28;20046;-91
2023/08/04 06:16:13;;;;;;;0.57;0.57;;;16.90;99.90;;;;;;4988082;28;20117;-90
2023/08/04 06:18:40;;;;;;;0.60;0.60;;;16.80;99.90;;;;;;4971806;28;20046;-90
2023/08/04 06:21:08;;;;;;;0.55;0.55;;;16.90;99.90;;;;;;4986767;28;20058;-91
2023/08/04 06:23:34;;;;;;;0.60;0.60;;;16.90;99.90;;;;;;4987722;28;20034;-90
2023/08/04 06:25:59;;;;;;;0.60;0.60;;;17.00;99.90;;;;;;4980558;28;20045;-91
2023/08/04 06:28:25;;;;;;;0.60;0.60;;;16.80;99.90;;;;;;4985691;28;20050;-91
2023/08/04 06:30:51;;;;;;;0.60;0.60;;;17.00;99.90;;;;;;4986496;28;20046;-89
2023/08/04 06:33:16;;;;;;;0.60;0.60;;;17.00;99.90;;;;;;4970461;28;20046;-89
2023/08/04 06:35:44;;;;;;;0.70;0.70;;;17.20;99.90;;;;;;4970752;28;20533;-90
2023/08/04 06:38:10;;;;;;;0.60;0.60;;;17.20;99.90;;;;;;4989631;28;20058;-91
2023/08/04 06:40:35;;;;;;;0.60;0.60;;;17.20;99.90;;;;;;4986108;28;22698;-89
2023/08/04 06:43:01;;;;;;;0.70;0.70;;;17.30;99.90;;;;;;4979309;28;20039;-91
2023/08/04 06:45:28;;;;;;;0.70;0.70;;;17.60;99.90;;;;;;4965122;28;20077;-89
2023/08/04 06:47:54;;;;;;;0.70;0.70;;;17.60;99.90;;;;;;4972119;28;20046;-90
2023/08/04 06:50:20;;;;;;;0.70;0.70;;;17.80;99.90;;;;;;4984533;28;20050;-90
2023/08/04 06:52:47;;;;;;;0.70;0.70;;;18.10;99.90;;;;;;4986248;28;20045;-88
2023/08/04 06:55:14;;;;;;;0.70;0.70;;;18.20;99.90;;;;;;4985205;28;20154;-92
2023/08/04 06:57:40;;;;;;;0.70;0.70;;;18.20;99.90;;;;;;4986694;28;20074;-90
2023/08/04 07:00:08;;;;;;;0.70;0.70;;;18.20;99.90;;;;;;4986197;28;20335;-90
2023/08/04 07:02:34;;;;;;;0.70;0.70;;;18.20;99.90;;;;;;4986161;28;20130;-90
2023/08/04 07:05:01;;;;;;;0.70;0.70;;;18.20;99.90;;;;;;4984616;28;20042;-90
2023/08/04 07:07:28;;;;;;;0.80;0.80;;;18.20;99.90;;;;;;4986812;28;20077;-88
2023/08/04 07:09:53;;;;;;;0.80;0.80;;;18.30;99.90;;;;;;4967878;28;20046;-90
2023/08/04 07:12:19;;;;;;;0.70;0.70;;;18.50;99.90;;;;;;4985506;28;20046;-90
2023/08/04 07:14:45;;;;;;;0.70;0.70;;;18.60;99.90;;;;;;4980769;28;20042;-88
2023/08/04 07:17:10;;;;;;;0.70;0.70;;;18.60;99.90;;;;;;4984096;28;20069;-89
2023/08/04 07:19:36;;;;;;;0.70;0.70;;;18.80;99.90;;;;;;4967443;28;20174;-88
2023/08/04 07:22:02;;;;;;;0.73;0.73;;;19.00;99.90;;;;;;4965890;28;20038;-89
2023/08/04 07:24:29;;;;;;;0.70;0.70;;;19.10;99.90;;;;;;4963641;28;20049;-87
2023/08/04 07:26:55;;;;;;;0.68;0.68;;;19.30;99.90;;;;;;4969740;28;20400;-88
2023/08/04 07:29:21;;;;;;;0.70;0.70;;;19.50;99.90;;;;;;4966239;28;20049;-87
2023/08/04 07:31:46;;;;;;;0.65;0.65;;;19.60;99.90;;;;;;4982388;28;20047;-87
2023/08/04 07:34:12;;;;;;;0.60;0.60;;;19.50;99.90;;;;;;4970364;28;20042;-87
2023/08/04 07:36:38;;;;;;;0.60;0.60;;;19.50;99.90;;;;;;4984491;28;20050;-90
2023/08/04 07:39:03;;;;;;;0.60;0.60;;;19.50;99.90;;;;;;4986192;28;20042;-89
2023/08/04 07:41:30;;;;;;;0.70;0.70;;;19.50;99.90;;;;;;4984060;28;20093;-87
2023/08/04 07:43:55;;;;;;;0.70;0.70;;;19.40;99.90;;;;;;4988049;28;20129;-88
2023/08/04 07:46:27;;;;;;;0.70;0.70;;;19.30;99.90;;;;;;4982725;28;20129;-89
2023/08/04 07:48:53;;;;;;;0.70;0.70;;;19.40;99.90;;;;;;4980986;28;20046;-89
2023/08/04 07:51:20;;;;;;;0.75;0.75;;;19.40;99.90;;;;;;4982481;28;20112;-89
2023/08/04 07:53:46;;;;;;;0.70;0.70;;;19.50;99.90;;;;;;4989744;28;20046;-88
2023/08/04 07:56:12;;;;;;;0.73;0.73;;;19.50;99.90;;;;;;4968587;28;20057;-89
2023/08/04 07:58:38;;;;;;;0.80;0.80;;;19.50;99.90;;;;;;4990896;28;20046;-89
2023/08/04 08:01:06;;;;;;;0.70;0.70;;;19.40;99.90;;;;;;4973936;28;20038;-90
2023/08/04 08:03:33;;;;;;;0.80;0.80;;;19.40;99.90;;;;;;4983329;28;20073;-88
2023/08/04 08:06:00;;;;;;;0.80;0.80;;;19.40;99.90;;;;;;4986677;28;20407;-89
2023/08/04 08:08:26;;;;;;;0.80;0.80;;;19.40;99.90;;;;;;4965534;28;20054;-88
2023/08/04 08:10:52;;;;;;;0.80;0.80;;;19.40;99.90;;;;;;4972967;28;20078;-87
2023/08/04 08:13:18;;;;;;;0.80;0.80;;;19.40;99.90;;;;;;4970571;28;20109;-89
2023/08/04 08:15:44;;;;;;;0.75;0.75;;;19.50;99.90;;;;;;4991615;28;20042;-89
2023/08/04 08:18:10;;;;;;;0.80;0.80;;;19.50;99.90;;;;;;4967430;28;20065;-88
2023/08/04 08:20:42;;;;;;;0.73;0.73;;;19.40;99.90;;;;;;4983767;28;20042;-87
2023/08/04 08:23:09;;;;;;;0.75;0.75;;;19.60;99.90;;;;;;4966954;28;20677;-89
2023/08/04 08:25:35;;;;;;;0.77;0.77;;;19.60;99.90;;;;;;4985243;28;20074;-90
2023/08/04 08:28:02;;;;;;;0.80;0.80;;;19.60;99.90;;;;;;4987202;28;20105;-88
2023/08/04 08:30:28;;;;;;;0.73;0.73;;;19.60;99.90;;;;;;4980799;28;20046;-88
2023/08/04 08:32:53;;;;;;;0.70;0.70;;;19.70;99.90;;;;;;4969924;28;20073;-88
2023/08/04 08:35:19;;;;;;;0.70;0.70;;;20.00;99.90;;;;;;4979803;28;20480;-91
2023/08/04 08:37:45;;;;;;;0.80;0.80;;;20.10;99.90;;;;;;4966270;28;20476;-86
2023/08/04 08:40:11;;;;;;;0.70;0.70;;;20.30;99.90;;;;;;4970524;28;20058;-87
2023/08/04 08:42:36;;;;;;;0.80;0.80;;;20.50;99.90;;;;;;4985005;28;20536;-86
2023/08/04 08:45:02;;;;;;;0.80;0.80;;;20.70;99.90;;;;;;4983584;28;20055;-88
2023/08/04 08:47:38;;;;;;;0.82;0.82;;;20.60;99.90;;;;;;4979795;28;20050;-89
2023/08/04 08:50:06;;;;;;;0.90;0.90;;;20.60;99.90;;;;;;4987427;28;20050;-89
2023/08/04 08:52:36;;;;;;;0.90;0.90;;;20.50;99.90;;;;;;4985103;28;20043;-87
2023/08/04 08:55:03;;;;;;;0.95;0.95;;;20.50;99.90;;;;;;4982307;28;20038;-89
2023/08/04 08:57:30;;;;;;;0.90;0.90;;;20.60;99.90;;;;;;4983496;28;20054;-90
2023/08/04 09:00:00;;;;;;;0.80;0.80;;;20.50;99.90;;;;;;4981074;28;20061;-88
2023/08/04 09:02:25;;;;;;;1.00;1.00;;;20.50;99.90;;;;;;4997114;28;20591;-88
2023/08/04 09:04:52;;;;;;;1.10;1.10;;;20.50;99.90;;;;;;4982070;28;20046;-90
2023/08/04 09:07:17;;;;;;;1.10;1.10;;;20.40;99.90;;;;;;4980867;28;20054;-88
2023/08/04 09:09:43;;;;;;;1.10;1.10;;;20.30;99.90;;;;;;4984531;28;20043;-87
2023/08/04 09:12:09;;;;;;;1.10;1.10;;;19.90;99.90;;;;;;4966383;28;20050;-88
2023/08/04 09:14:55;;;;;;;0.80;0.80;;;20.00;99.90;;;;;;4984896;28;20038;-88
2023/08/04 09:17:35;;;;;;;0.80;0.80;;;19.80;99.90;;;;;;4986932;28;20471;-90
2023/08/04 09:20:03;;;;;;;0.80;0.80;;;19.90;99.90;;;;;;5006551;23;20562;-89
2023/08/04 09:22:31;;;;;;;0.70;0.70;;;19.90;99.90;;;;;;4982977;28;20056;-86
2023/08/04 09:24:59;;;;;;;0.80;0.80;;;20.00;99.90;;;;;;4991556;28;20042;-88
2023/08/04 09:27:33;;;;;;;0.80;0.80;;;20.30;99.90;;;;;;4997507;28;20136;-89
2023/08/04 09:30:01;;;;;;;0.70;0.70;;;20.50;99.90;;;;;;4983131;28;20496;-89
2023/08/04 09:32:27;;;;;;;0.70;0.70;;;20.50;99.90;;;;;;4987920;28;20570;-88
2023/08/04 09:35:01;;;;;;;0.80;0.80;;;20.90;99.90;;;;;;4999388;28;20540;-89
2023/08/04 09:37:27;;;;;;;;;;;21.10;99.90;;;;;;4998909;28;20495;-89
2023/08/04 09:39:53;;;;;;;0.80;0.80;;;21.10;99.90;;;;;;4995619;28;19945;-90
2023/08/04 09:42:21;;;;;;;0.90;0.90;;;21.30;99.90;;;;;;4981325;28;20478;-90
2023/08/04 09:44:54;;;;;;;0.90;0.90;;;21.10;99.90;;;;;;4981391;28;20045;-88
2023/08/04 09:47:25;;;;;;;0.98;0.98;;;21.20;99.90;;;;;;4997092;28;20404;-87
2023/08/04 09:49:51;;;;;;;0.80;0.80;;;21.30;99.90;;;;;;4997885;28;20076;-91
2023/08/04 09:52:22;;;;;;;0.90;0.90;;;21.40;99.90;;;;;;4979131;28;20046;-89
2023/08/04 09:54:49;;;;;;;0.70;0.70;;;21.40;99.90;;;;;;4971549;28;20050;-90
2023/08/04 09:57:15;;;;;;;0.85;0.85;;;21.40;99.90;;;;;;4974555;28;20747;-89
2023/08/04 09:59:41;;;;;;;0.90;0.90;;;21.50;99.90;;;;;;4981243;28;20046;-91
2023/08/04 10:02:09;;;;;;;1.08;1.08;;;21.50;99.90;;;;;;4958607;28;20058;-90
2023/08/04 10:04:35;;;;;;;0.95;0.95;;;21.00;99.90;;;;;;4960321;28;20428;-89
2023/08/04 10:07:02;;;;;;;0.80;0.80;;;21.00;99.90;;;;;;4962302;28;20049;-90
2023/08/04 10:09:31;;;;;;;0.80;0.80;;;20.60;99.90;;;;;;4960691;28;20078;-88
2023/08/04 10:12:00;;;;;;;0.80;0.80;;;20.20;99.90;;;;;;4963998;28;20042;-94
2023/08/04 10:14:26;;;;;;;0.70;0.70;;;19.80;99.90;;;;;;4981457;28;20045;-92
2023/08/04 10:16:53;;;;;;;0.65;0.65;;;19.60;99.90;;;;;;4980102;28;20047;-92
2023/08/04 10:19:19;;;;;;;0.60;0.60;;;19.20;99.90;;;;;;4976833;28;20496;-91
2023/08/04 10:21:44;;;;;;;0.60;0.60;;;19.20;99.90;;;;;;4967981;28;20104;-91
2023/08/04 10:24:12;;;;;;;0.60;0.60;;;19.20;99.90;;;;;;4964347;28;20049;-91
2023/08/04 10:26:45;;;;;;;0.50;0.50;;;19.20;99.90;;;;;;4963062;28;20102;-91
2023/08/04 10:29:11;;;;;;;0.60;0.60;;;19.20;99.90;;;;;;4967671;28;20046;-91
2023/08/04 10:31:57;;;;;;;0.50;0.50;;;19.30;99.90;;;;;;4976123;28;20082;-94
2023/08/04 10:34:31;;;;;;;0.60;0.60;;;19.30;99.90;;;;;;4980909;28;20439;-90
2023/08/04 10:37:11;;;;;;;0.52;0.52;;;19.50;99.90;;;;;;4962332;28;20054;-91
2023/08/04 10:40:05;;;;;;;0.55;0.55;;;19.60;99.90;;;;;;4966064;28;20180;-92
2023/08/04 10:42:31;;;;;;;0.60;0.60;;;20.50;99.90;;;;;;4978711;28;20058;-90
2023/08/04 10:45:05;;;;;;;0.60;0.60;;;21.00;99.90;;;;;;4978121;28;20047;-90
2023/08/04 10:47:41;;;;;;;;;;;21.60;99.90;;;;;;4960391;28;20047;-90
2023/08/04 10:50:07;;;;;;;0.80;0.80;;;22.10;99.90;;;;;;4978121;28;19930;-88
2023/08/04 10:52:35;;;;;;;0.70;0.70;;;22.20;99.90;;;;;;4960667;28;20054;-89
2023/08/04 10:55:03;;;;;;;0.70;0.70;;;21.80;99.90;;;;;;4960196;28;20461;-87
2023/08/04 10:57:33;;;;;;;0.70;0.70;;;21.70;99.90;;;;;;4975249;28;20050;-90
2023/08/04 11:00:06;;;;;;;0.65;0.65;;;21.80;99.90;;;;;;4950775;28;20843;-88
2023/08/04 11:02:33;;;;;;;0.65;0.65;;;21.60;99.90;;;;;;4981697;28;20050;-91
2023/08/04 11:04:58;;;;;;;0.70;0.70;;;21.80;99.90;;;;;;4959772;28;20105;-87
2023/08/04 11:07:24;;;;;;;0.70;0.70;;;22.10;99.90;;;;;;4970599;28;20054;-91
2023/08/04 11:09:53;;;;;;;0.60;0.60;;;22.40;99.90;;;;;;4966418;28;20454;-91
2023/08/04 11:12:20;;;;;;;0.60;0.60;;;22.90;99.90;;;;;;4959859;28;20043;-91
2023/08/04 11:14:46;;;;;;;0.50;0.50;;;22.50;99.90;;;;;;4962172;28;20057;-90
2023/08/04 11:17:20;;;;;;;0.50;0.50;;;22.70;99.90;;;;;;4964249;28;20077;-90
2023/08/04 11:19:50;;;;;;;0.63;0.63;;;22.90;99.90;;;;;;4959829;28;20770;-90
2023/08/04 11:22:18;;;;;;;0.63;0.63;;;22.70;99.90;;;;;;4963855;28;20060;-90
2023/08/04 11:24:44;;;;;;;0.60;0.60;;;22.70;99.90;;;;;;4964689;28;20058;-88
2023/08/04 11:27:12;;;;;;;0.30;0.30;;;23.30;99.90;;;;;;4997906;28;20067;-89
2023/08/04 11:29:38;;;;;;;0.60;0.60;;;23.50;99.90;;;;;;4976351;28;20050;-87
2023/08/04 11:32:11;;;;;;;0.50;0.43;;;23.50;99.90;;;;;;4985158;28;20117;-90
2023/08/04 11:34:40;;;;;;;0.73;0.73;;;23.40;99.90;;;;;;4956177;28;20047;-89
2023/08/04 11:37:05;;;;;;;0.30;0.30;;;23.30;99.90;;;;;;4983066;28;20054;-87
2023/08/04 11:39:31;;;;;;;0.77;0.77;;;23.10;99.90;;;;;;4962969;28;20622;-89
2023/08/04 11:41:57;;;;;;;0.70;0.70;;;22.90;99.90;;;;;;4971524;28;20069;-88
2023/08/04 11:44:23;;;;;;;0.63;0.63;;;22.50;99.90;;;;;;4977729;28;20049;-90
2023/08/04 11:46:49;;;;;;;0.38;0.38;;;22.50;99.90;;;;;;4965740;28;20561;-90
2023/08/04 11:49:15;;;;;;;0.70;0.70;;;22.50;99.90;;;;;;4961201;28;20575;-90
2023/08/04 11:51:44;;;;;;;0.60;0.60;;;23.00;99.90;;;;;;4961887;28;20043;-89
2023/08/04 11:54:21;;;;;;;0.38;0.38;;;23.20;99.90;;;;;;4977758;28;20049;-89
2023/08/04 11:56:59;;;;;;;0.70;0.70;;;23.70;99.90;;;;;;4976526;28;20058;-88
2023/08/04 11:59:25;;;;;;;0.30;0.30;;;23.80;99.90;;;;;;4970973;28;20057;-90
2023/08/04 12:02:06;;;;;;;0.70;0.70;;;23.70;99.90;;;;;;4966092;28;20564;-87
2023/08/04 12:04:32;;;;;;;0.30;0.30;;;23.60;99.90;;;;;;4960146;28;20112;-88
2023/08/04 12:06:58;;;;;;;0.30;0.30;;;24.00;99.90;;;;;;4975247;28;20092;-90
2023/08/04 12:09:24;;;;;;;0.45;0.45;;;24.10;99.90;;;;;;4973585;28;20050;-88
2023/08/04 12:11:50;;;;;;;0.60;0.60;;;24.50;99.90;;;;;;4959730;28;20109;-89
2023/08/04 12:14:16;;;;;;;0.30;0.30;;;24.60;99.90;;;;;;4979340;28;20492;-88
2023/08/04 12:16:56;;;;;;;0.30;0.30;;;24.70;99.90;;;;;;4977187;28;20057;-90
2023/08/04 12:19:24;;;;;;;0.30;0.30;;;24.90;99.90;;;;;;4968937;28;20046;-87
2023/08/04 12:22:00;;;;;;;0.30;0.30;;;23.50;99.90;;;;;;4973032;28;20109;-92
2023/08/04 12:24:26;;;;;;;0.30;0.30;;;22.90;99.90;;;;;;4980152;28;20046;-90
2023/08/04 12:26:53;;;;;;;0.30;0.30;;;22.40;99.90;;;;;;4964877;28;20046;-91
2023/08/04 12:29:22;;;;;;;0.50;0.50;;;21.70;99.90;;;;;;4990501;28;20089;-93
2023/08/04 12:31:49;;;;;;;0.32;0.32;;;20.80;99.90;;;;;;4980709;28;20105;-94
2023/08/04 12:38:03;;;;;;;0.60;0.60;;;20.20;99.90;;;;;;4915648;29;20260;-96
2023/08/04 12:40:58;;;;;;;0.50;0.50;;;20.10;99.90;;;;;;4927912;28;20054;-95
2023/08/04 12:44:02;;;;;;;;;;;;;;;;;;;;;
2023/08/04 12:46:41;;;;;;;0.55;0.55;;;19.60;99.90;;;;;;4936060;29;20142;-96
2023/08/04 12:49:10;;;;;;;0.40;0.40;;;19.30;99.90;;;;;;4955149;28;20054;-94
2023/08/04 12:52:08;;;;;;;0.50;0.50;;;19.60;99.90;;;;;;4977539;28;20042;-96
2023/08/04 12:55:06;;;;;;;0.50;0.50;;;19.70;99.90;;;;;;4957507;28;20138;-96